createdAt,value
2019-02-19T00:02:21.628Z,97690.80
2019-02-19T00:04:48.308Z,97683.44
2019-02-19T00:07:15.110Z,97679.64
2019-02-19T00:09:41.753Z,97683.64
2019-02-19T00:12:08.456Z,97690.82
2019-02-19T00:14:35.126Z,97689.48
2019-02-19T00:17:01.780Z,97693.28
2019-02-19T00:19:28.787Z,97690.11
2019-02-19T00:21:55.451Z,97693.28
2019-02-19T00:24:22.343Z,97692.45
2019-02-19T00:26:48.982Z,97693.17
2019-02-19T00:29:15.559Z,97692.35
2019-02-19T00:31:42.186Z,97695.11
2019-02-19T00:34:08.886Z,97695.01
2019-02-19T00:36:35.580Z,97698.50
2019-02-19T00:39:02.762Z,97697.88
2019-02-19T00:41:29.602Z,97701.77
2019-02-19T00:43:56.287Z,97703.61
2019-02-19T00:46:22.934Z,97695.00
2019-02-19T00:48:49.506Z,97700.97
2019-02-19T00:51:16.163Z,97706.19
2019-02-19T00:53:42.769Z,97705.58
2019-02-19T00:56:09.539Z,97718.80
2019-02-19T00:58:36.262Z,97720.53
2019-02-19T01:01:03.067Z,97722.27
2019-02-19T01:03:29.747Z,97715.09
2019-02-19T01:05:56.416Z,97715.70
2019-02-19T01:08:23.100Z,97722.86
2019-02-19T01:10:49.775Z,97724.20
2019-02-19T01:13:16.455Z,97724.09
2019-02-19T01:15:43.101Z,97727.57
2019-02-19T01:18:09.852Z,97723.77
2019-02-19T01:20:36.499Z,97722.44
2019-02-19T01:23:03.162Z,97724.59
2019-02-19T01:25:31.679Z,97721.31
2019-02-19T01:27:58.474Z,97722.87
2019-02-19T01:30:25.199Z,97732.80
2019-02-19T01:32:51.902Z,97730.73
2019-02-19T01:35:18.698Z,97733.39
2019-02-19T01:37:45.358Z,97733.39
2019-02-19T01:40:12.035Z,97726.03
2019-02-19T01:42:38.687Z,97727.67
2019-02-19T01:45:06.757Z,97725.52
2019-02-19T01:47:33.520Z,97725.00
2019-02-19T01:50:00.288Z,97729.91
2019-02-19T01:52:27.035Z,97726.31
2019-02-19T01:54:53.772Z,97722.09
2019-02-19T01:57:21.688Z,97726.38
2019-02-19T01:59:49.243Z,97720.14
2019-02-19T02:02:18.025Z,97716.54
2019-02-19T02:04:44.740Z,97719.41
2019-02-19T02:07:11.541Z,97718.78
2019-02-19T02:09:38.176Z,97712.31
2019-02-19T02:12:04.964Z,97712.52
2019-02-19T02:14:31.738Z,97707.89
2019-02-19T02:16:58.395Z,97710.25
2019-02-19T02:19:25.183Z,97707.98
2019-02-19T02:21:51.855Z,97709.51
2019-02-19T02:24:18.531Z,97702.97
2019-02-19T02:26:45.210Z,97705.31
2019-02-19T02:29:11.888Z,97706.65
2019-02-19T02:31:38.653Z,97703.59
2019-02-19T02:34:05.407Z,97697.13
2019-02-19T02:36:32.071Z,97705.74
2019-02-19T02:38:58.798Z,97707.59
2019-02-19T02:41:25.466Z,97709.34
2019-02-19T02:43:52.050Z,97709.85
2019-02-19T02:46:18.831Z,97711.30
2019-02-19T02:48:45.510Z,97713.17
2019-02-19T02:51:12.350Z,97714.50
2019-02-19T02:53:39.062Z,97717.58
2019-02-19T02:56:05.895Z,97726.51
2019-02-19T02:58:32.433Z,97722.20
2019-02-19T03:00:59.212Z,97720.67
2019-02-19T03:03:25.894Z,97715.45
2019-02-19T03:06:19.551Z,97720.08
2019-02-19T03:08:46.649Z,97722.23
2019-02-19T03:11:13.366Z,97726.53
2019-02-19T03:13:40.034Z,97728.27
2019-02-19T03:16:06.688Z,97726.42
2019-02-19T03:18:33.336Z,97721.49
2019-02-19T03:21:00.022Z,97728.98
2019-02-19T03:23:26.780Z,97731.33
2019-02-19T03:25:53.437Z,97738.73
2019-02-19T03:28:20.005Z,97735.23
2019-02-19T03:30:46.707Z,97730.94
2019-02-19T03:33:13.363Z,97735.04
2019-02-19T03:35:39.948Z,97736.57
2019-02-19T03:38:06.594Z,97734.30
2019-02-19T03:40:33.239Z,97740.54
2019-02-19T03:43:00.022Z,97736.74
2019-02-19T03:45:26.777Z,97738.27
2019-02-19T03:47:53.325Z,97746.66
2019-02-19T03:50:20.017Z,97740.20
2019-02-19T03:52:46.782Z,97740.70
2019-02-19T03:55:13.648Z,97745.33
2019-02-19T03:57:40.339Z,97751.98
2019-02-19T04:00:07.423Z,97747.59
2019-02-19T04:02:34.079Z,97749.24
2019-02-19T04:05:00.768Z,97749.87
2019-02-19T04:07:27.595Z,97751.20
2019-02-19T04:09:54.275Z,97751.40
2019-02-19T04:12:20.974Z,97755.28
2019-02-19T04:14:47.652Z,97755.39
2019-02-19T04:17:14.432Z,97750.89
2019-02-19T04:19:41.005Z,97752.33
2019-02-19T04:22:07.557Z,97764.75
2019-02-19T04:24:34.132Z,97756.24
2019-02-19T04:27:00.699Z,97760.87
2019-02-19T04:29:27.376Z,97769.38
2019-02-19T04:31:54.056Z,97761.89
2019-02-19T04:34:20.913Z,97770.39
2019-02-19T04:36:47.713Z,97763.22
2019-02-19T04:39:14.411Z,97762.28
2019-02-19T04:41:41.204Z,97765.97
2019-02-19T04:44:07.956Z,97769.45
2019-02-19T04:46:34.734Z,97767.92
2019-02-19T04:49:01.537Z,97763.81
2019-02-19T04:51:28.169Z,97772.52
2019-02-19T04:53:58.813Z,97775.18
2019-02-19T04:56:25.686Z,97778.86
2019-02-19T04:58:52.387Z,97777.61
2019-02-19T05:01:18.965Z,97773.30
2019-02-19T05:03:51.520Z,97780.08
2019-02-19T05:06:18.215Z,97783.45
2019-02-19T05:08:45.027Z,97786.19
2019-02-19T05:11:12.002Z,97786.89
2019-02-19T05:13:38.709Z,97793.01
2019-02-19T05:16:05.563Z,97790.93
2019-02-19T05:18:32.366Z,97792.14
2019-02-19T05:20:58.958Z,97797.86
2019-02-19T05:23:25.772Z,97798.59
2019-02-19T05:25:52.544Z,97799.30
2019-02-19T05:28:19.304Z,97799.77
2019-02-19T05:30:45.963Z,97798.81
2019-02-19T05:33:12.956Z,97797.56
2019-02-19T05:35:39.711Z,97799.71
2019-02-19T05:38:06.525Z,97802.77
2019-02-19T05:40:33.587Z,97799.28
2019-02-19T05:43:01.569Z,97806.44
2019-02-19T05:45:28.640Z,97807.27
2019-02-19T05:47:55.537Z,97807.58
2019-02-19T05:50:22.575Z,97803.90
2019-02-19T05:52:49.239Z,97804.72
2019-02-19T05:55:16.103Z,97799.28
2019-02-19T05:57:42.823Z,97792.50
2019-02-19T06:00:09.832Z,97808.28
2019-02-19T06:02:37.165Z,97806.05
2019-02-19T06:05:05.929Z,97808.33
2019-02-19T06:07:34.707Z,97807.94
2019-02-19T06:10:01.413Z,97806.61
2019-02-19T06:12:28.203Z,97806.92
2019-02-19T06:14:54.942Z,97805.40
2019-02-19T06:17:21.858Z,97813.08
2019-02-19T06:19:50.858Z,97816.36
2019-02-19T06:22:17.808Z,97822.00
2019-02-19T06:24:44.660Z,97823.38
2019-02-19T06:27:11.825Z,97827.78
2019-02-19T06:29:38.991Z,97827.90
2019-02-19T06:32:05.828Z,97831.70
2019-02-19T06:34:32.771Z,97832.02
2019-02-19T06:36:59.821Z,97833.47
2019-02-19T06:39:26.613Z,97844.87
2019-02-19T06:41:53.524Z,97846.83
2019-02-19T06:44:20.420Z,97844.40
2019-02-19T06:46:47.220Z,97851.27
2019-02-19T06:49:14.179Z,97853.46
2019-02-19T06:51:40.824Z,97857.89
2019-02-19T06:54:07.744Z,97862.98
2019-02-19T06:56:34.472Z,97861.14
2019-02-19T06:59:01.035Z,97865.23
2019-02-19T07:02:02.921Z,97866.28
2019-02-19T07:04:33.679Z,97859.60
2019-02-19T07:07:00.392Z,97864.25
2019-02-19T07:09:27.147Z,97866.34
2019-02-19T07:11:53.872Z,97867.30
2019-02-19T07:14:20.735Z,97869.67
2019-02-19T07:16:47.560Z,97867.34
2019-02-19T07:19:14.343Z,97857.98
2019-02-19T07:21:41.020Z,97864.78
2019-02-19T07:24:07.711Z,97866.91
2019-02-19T07:26:34.302Z,97871.54
2019-02-19T07:29:01.192Z,97873.36
2019-02-19T07:31:27.756Z,97877.36
2019-02-19T07:33:54.416Z,97874.06
2019-02-19T07:36:21.293Z,97880.69
2019-02-19T07:38:47.927Z,97871.16
2019-02-19T07:41:14.731Z,97869.89
2019-02-19T07:43:41.423Z,97870.52
2019-02-19T07:46:08.074Z,97873.66
2019-02-19T07:48:34.805Z,97873.44
2019-02-19T07:51:01.455Z,97879.00
2019-02-19T07:53:28.034Z,97882.80
2019-02-19T07:55:54.719Z,97873.31
2019-02-19T07:58:21.402Z,97867.23
2019-02-19T08:00:48.060Z,97869.55
2019-02-19T08:03:14.670Z,97869.42
2019-02-19T08:05:41.204Z,97874.39
2019-02-19T08:08:08.048Z,97871.18
2019-02-19T08:10:34.585Z,97871.02
2019-02-19T08:13:01.257Z,97868.09
2019-02-19T08:15:27.808Z,97859.63
2019-02-19T08:17:54.474Z,97859.08
2019-02-19T08:20:21.142Z,97864.92
2019-02-19T08:22:49.818Z,97864.52
2019-02-19T08:25:16.377Z,97866.06
2019-02-19T08:27:43.118Z,97863.15
2019-02-19T08:30:11.198Z,97858.45
2019-02-19T08:32:38.297Z,97862.98
2019-02-19T08:35:05.213Z,97853.28
2019-02-19T08:37:31.894Z,97860.97
2019-02-19T08:39:58.664Z,97860.84
2019-02-19T08:42:25.350Z,97861.81
2019-02-19T08:44:52.031Z,97861.92
2019-02-19T08:47:18.793Z,97854.27
2019-02-19T08:49:45.369Z,97857.17
2019-02-19T08:52:12.041Z,97853.73
2019-02-19T08:54:38.897Z,97854.02
2019-02-19T08:57:05.584Z,97857.76
2019-02-19T08:59:32.262Z,97860.72
2019-02-19T09:01:59.082Z,97856.56
2019-02-19T09:04:25.721Z,97845.47
2019-02-19T09:06:52.616Z,97848.16
2019-02-19T09:09:19.346Z,97838.67
2019-02-19T09:11:46.113Z,97838.65
2019-02-19T09:14:12.877Z,97845.16
2019-02-19T09:16:39.610Z,97842.92
2019-02-19T09:19:06.287Z,97841.77
2019-02-19T09:21:32.844Z,97854.34
2019-02-19T09:23:59.618Z,97858.47
2019-02-19T09:26:26.193Z,97856.44
2019-02-19T09:28:52.766Z,97862.23
2019-02-19T09:31:19.458Z,97863.09
2019-02-19T09:33:46.176Z,97860.62
2019-02-19T09:36:12.967Z,97859.53
2019-02-19T09:38:39.666Z,97859.30
2019-02-19T09:41:06.416Z,97862.22
2019-02-19T09:43:35.514Z,97856.41
2019-02-19T09:46:01.567Z,97855.33
2019-02-19T09:48:28.307Z,97853.97
2019-02-19T09:50:54.986Z,97851.64
2019-02-19T09:53:21.657Z,97853.41
2019-02-19T09:55:48.233Z,97847.94
2019-02-19T09:58:14.862Z,97847.88
2019-02-19T10:00:41.597Z,97840.13
2019-02-19T10:03:08.203Z,97842.16
2019-02-19T10:05:35.081Z,97842.63
2019-02-19T10:08:01.873Z,97822.38
2019-02-19T10:10:28.564Z,97826.55
2019-02-19T10:12:55.211Z,97821.97
2019-02-19T10:15:21.887Z,97824.70
2019-02-19T10:17:48.671Z,97824.25
2019-02-19T10:20:15.529Z,97828.21
2019-02-19T10:22:42.219Z,97833.25
2019-02-19T10:25:09.376Z,97832.05
2019-02-19T10:27:36.146Z,97834.40
2019-02-19T10:30:03.378Z,97828.56
2019-02-19T10:32:29.968Z,97829.77
2019-02-19T10:34:56.799Z,97824.77
2019-02-19T10:37:23.564Z,97823.84
2019-02-19T10:39:50.410Z,97821.74
2019-02-19T10:42:18.934Z,97816.98
2019-02-19T10:44:45.842Z,97811.55
2019-02-19T10:47:12.606Z,97806.73
2019-02-19T10:49:39.293Z,97808.54
2019-02-19T10:52:06.048Z,97801.63
2019-02-19T10:54:32.906Z,97805.61
2019-02-19T10:56:59.723Z,97801.56
2019-02-19T10:59:26.575Z,97804.08
2019-02-19T11:01:53.368Z,97796.63
2019-02-19T11:04:20.090Z,97797.62
2019-02-19T11:06:46.852Z,97790.56
2019-02-19T11:09:13.428Z,97795.72
2019-02-19T11:11:40.093Z,97790.77
2019-02-19T11:14:07.798Z,97785.81
2019-02-19T11:16:34.410Z,97783.22
2019-02-19T11:19:01.206Z,97778.84
2019-02-19T11:21:27.884Z,97774.27
2019-02-19T11:23:54.696Z,97767.68
2019-02-19T11:26:21.442Z,97770.51
2019-02-19T11:28:48.141Z,97761.73
2019-02-19T11:31:14.686Z,97757.78
2019-02-19T11:33:41.360Z,97754.23
2019-02-19T11:36:08.087Z,97754.26
2019-02-19T11:38:34.931Z,97754.37
2019-02-19T11:41:01.609Z,97752.80
2019-02-19T11:43:28.413Z,97751.87
2019-02-19T11:45:55.169Z,97750.53
2019-02-19T11:48:21.735Z,97741.20
2019-02-19T11:50:48.557Z,97736.00
2019-02-19T11:53:15.234Z,97732.61
2019-02-19T11:55:41.911Z,97729.27
2019-02-19T11:58:08.599Z,97727.86
2019-02-19T12:00:37.694Z,97725.53
2019-02-19T12:03:04.587Z,97722.22
2019-02-19T12:05:31.259Z,97719.27
2019-02-19T12:07:58.112Z,97732.88
2019-02-19T12:10:24.933Z,97739.28
2019-02-19T12:12:51.848Z,97736.94
2019-02-19T12:15:21.511Z,97739.19
2019-02-19T12:17:48.230Z,97736.82
2019-02-19T12:20:14.878Z,97740.71
2019-02-19T12:22:41.693Z,97736.53
2019-02-19T12:25:09.193Z,97742.86
2019-02-19T12:27:35.899Z,97742.27
2019-02-19T12:30:02.738Z,97742.22
2019-02-19T12:32:29.418Z,97741.09
2019-02-19T12:34:56.280Z,97732.55
2019-02-19T12:37:23.007Z,97732.31
2019-02-19T12:39:49.818Z,97722.39
2019-02-19T12:42:16.531Z,97718.08
2019-02-19T12:44:45.186Z,97716.17
2019-02-19T12:47:11.861Z,97718.06
2019-02-19T12:49:38.984Z,97730.56
2019-02-19T12:52:05.842Z,97723.28
2019-02-19T12:54:32.726Z,97726.81
2019-02-19T12:56:59.549Z,97720.08
2019-02-19T12:59:26.253Z,97712.81
2019-02-19T13:01:53.012Z,97709.84
2019-02-19T13:04:19.775Z,97710.28
2019-02-19T13:06:46.625Z,97707.87
2019-02-19T13:09:13.358Z,97706.84
2019-02-19T13:11:40.148Z,97719.98
2019-02-19T13:14:07.924Z,97708.64
2019-02-19T13:16:34.716Z,97712.00
2019-02-19T13:19:03.794Z,97710.48
2019-02-19T13:21:30.071Z,97721.13
2019-02-19T13:23:56.997Z,97720.02
2019-02-19T13:26:23.716Z,97712.70
2019-02-19T13:28:50.326Z,97706.98
2019-02-19T13:31:17.147Z,97715.39
2019-02-19T13:33:43.963Z,97715.39
2019-02-19T13:36:10.659Z,97718.41
2019-02-19T13:38:37.445Z,97712.69
2019-02-19T13:41:04.108Z,97707.97
2019-02-19T13:43:30.981Z,97712.45
2019-02-19T13:45:57.667Z,97700.97
2019-02-19T13:48:24.410Z,97701.58
2019-02-19T13:50:51.166Z,97695.73
2019-02-19T13:53:40.366Z,97696.80
2019-02-19T13:56:07.166Z,97697.78
2019-02-19T13:58:34.006Z,97699.94
2019-02-19T14:01:00.785Z,97702.80
2019-02-19T14:03:27.510Z,97693.95
2019-02-19T14:05:54.554Z,97690.50
2019-02-19T14:08:21.385Z,97686.16
2019-02-19T14:10:48.170Z,97684.41
2019-02-19T14:13:14.953Z,97690.19
2019-02-19T14:16:04.100Z,97684.13
2019-02-19T14:18:49.235Z,97680.92
2019-02-19T14:21:34.173Z,97685.34
2019-02-19T14:24:09.372Z,97688.86
2019-02-19T14:26:47.449Z,97697.84
2019-02-19T14:29:32.284Z,97695.06
2019-02-19T14:32:16.755Z,97697.67
2019-02-19T14:35:00.354Z,97695.48
2019-02-19T14:38:04.542Z,97700.09
2019-02-19T14:40:59.562Z,97700.20
2019-02-19T14:43:36.367Z,97702.70
2019-02-19T14:46:28.401Z,97701.27
2019-02-19T14:49:17.695Z,97699.91
2019-02-19T14:51:55.128Z,97706.59
2019-02-19T14:54:45.828Z,97709.61
2019-02-19T14:57:32.311Z,97708.82
2019-02-19T15:00:14.202Z,97708.30
2019-02-19T15:03:00.964Z,97711.34
2019-02-19T15:05:53.460Z,97713.05
2019-02-19T15:08:57.979Z,97714.97
2019-02-19T15:11:39.036Z,97713.90
2019-02-19T15:14:24.199Z,97709.61
2019-02-19T15:17:08.872Z,97710.16
2019-02-19T15:20:06.997Z,97705.80
2019-02-19T15:22:51.818Z,97702.54
2019-02-19T15:25:40.760Z,97702.80
2019-02-19T15:28:33.200Z,97696.77
2019-02-19T15:31:19.569Z,97696.48
2019-02-19T15:34:06.578Z,97694.86
2019-02-19T15:36:51.938Z,97700.02
2019-02-19T15:39:37.309Z,97695.67
2019-02-19T15:42:20.082Z,97700.04
2019-02-19T15:45:05.089Z,97697.38
2019-02-19T15:47:57.546Z,97702.02
2019-02-19T15:50:43.986Z,97704.19
2019-02-19T15:53:20.552Z,97703.94
2019-02-19T15:55:59.347Z,97699.60
2019-02-19T15:58:51.376Z,97704.00
2019-02-19T16:01:53.994Z,97708.63
2019-02-19T16:04:37.131Z,97698.86
2019-02-19T16:07:14.683Z,97704.84
2019-02-19T16:09:53.633Z,97705.39
2019-02-19T16:12:49.260Z,97708.66
2019-02-19T16:15:47.803Z,97703.50
2019-02-19T16:18:31.149Z,97707.63
2019-02-19T16:21:16.461Z,97707.37
2019-02-19T16:24:08.490Z,97704.93
2019-02-19T16:27:03.779Z,97709.31
2019-02-19T16:29:56.819Z,97709.31
2019-02-19T16:32:29.441Z,97716.39
2019-02-19T16:35:15.991Z,97720.19
2019-02-19T16:37:59.302Z,97711.53
2019-02-19T16:40:57.609Z,97727.23
2019-02-19T16:43:49.958Z,97722.34
2019-02-19T16:46:22.792Z,97726.38
2019-02-19T16:49:18.083Z,97733.70
2019-02-19T16:51:57.915Z,97739.64
2019-02-19T16:54:40.801Z,97740.98
2019-02-19T16:57:29.830Z,97753.17
2019-02-19T17:00:14.628Z,97749.64
2019-02-19T17:03:03.652Z,97754.53
2019-02-19T17:05:39.977Z,97763.19
2019-02-19T17:08:32.912Z,97762.91
2019-02-19T17:11:09.837Z,97766.43
2019-02-19T17:14:04.317Z,97762.63
2019-02-19T17:16:49.482Z,97764.27
2019-02-19T17:19:29.263Z,97771.02
2019-02-19T17:22:15.744Z,97767.21
2019-02-19T17:25:08.154Z,97764.75
2019-02-19T17:27:40.779Z,97775.30
2019-02-19T17:30:30.328Z,97775.58
2019-02-19T17:33:09.865Z,97777.19
2019-02-19T17:35:58.927Z,97784.22
2019-02-19T17:38:50.032Z,97782.62
2019-02-19T17:41:28.993Z,97777.70
2019-02-19T17:44:13.747Z,97779.58
2019-02-19T17:47:08.976Z,97775.51
2019-02-19T17:49:49.952Z,97773.59
2019-02-19T17:52:34.853Z,97772.76
2019-02-19T17:55:19.698Z,97778.45
2019-02-19T17:58:08.090Z,97783.59
2019-02-19T18:01:11.119Z,97781.41
2019-02-19T18:03:49.324Z,97786.55
2019-02-19T18:06:23.509Z,97780.83
2019-02-19T18:08:57.181Z,97785.41
2019-02-19T18:11:42.308Z,97798.06
2019-02-19T18:14:29.726Z,97779.00
2019-02-19T18:17:24.987Z,97803.70
2019-02-19T18:19:51.686Z,97807.47
2019-02-19T18:22:18.525Z,97802.01
2019-02-19T18:24:45.801Z,97804.41
2019-02-19T18:27:12.672Z,97810.88
2019-02-19T18:29:39.561Z,97804.11
2019-02-19T18:32:07.517Z,97800.84
2019-02-19T18:34:34.366Z,97794.04
2019-02-19T18:37:01.092Z,97806.22
2019-02-19T18:39:27.812Z,97804.59
2019-02-19T18:41:54.572Z,97804.83
2019-02-19T18:44:23.603Z,97815.63
2019-02-19T18:46:50.493Z,97817.77
2019-02-19T18:49:18.299Z,97824.23
2019-02-19T18:51:45.312Z,97824.99
2019-02-19T18:54:14.544Z,97832.80
2019-02-19T18:56:42.149Z,97838.22
2019-02-19T18:59:08.839Z,97838.95
2019-02-19T19:01:35.862Z,97839.91
2019-02-19T19:04:05.019Z,97847.20
2019-02-19T19:06:31.749Z,97854.22
2019-02-19T19:08:58.561Z,97849.81
2019-02-19T19:11:25.527Z,97846.02
2019-02-19T19:13:52.366Z,97845.67
2019-02-19T19:16:21.241Z,97848.59
2019-02-19T19:18:48.295Z,97848.50
2019-02-19T19:21:15.145Z,97850.64
2019-02-19T19:23:41.968Z,97854.13
2019-02-19T19:26:08.769Z,97848.69
2019-02-19T19:28:35.533Z,97846.98
2019-02-19T19:31:02.427Z,97851.01
2019-02-19T19:33:29.209Z,97858.52
2019-02-19T19:35:56.189Z,97872.73
2019-02-19T19:38:22.845Z,97872.91
2019-02-19T19:40:49.625Z,97874.96
2019-02-19T19:43:16.435Z,97884.09
2019-02-19T19:45:43.236Z,97879.39
2019-02-19T19:48:10.166Z,97881.19
2019-02-19T19:50:36.974Z,97886.75
2019-02-19T19:53:03.944Z,97895.22
2019-02-19T19:55:30.716Z,97891.41
2019-02-19T19:57:57.419Z,97891.28
2019-02-19T20:00:24.114Z,97891.19
2019-02-19T20:02:50.934Z,97896.55
2019-02-19T20:05:17.680Z,97897.77
2019-02-19T20:07:44.693Z,97904.94
2019-02-19T20:10:16.285Z,97909.61
2019-02-19T20:12:43.170Z,97914.58
2019-02-19T20:15:10.165Z,97913.36
2019-02-19T20:17:37.596Z,97909.50
2019-02-19T20:20:05.141Z,97916.91
2019-02-19T20:22:32.105Z,97916.81
2019-02-19T20:24:58.961Z,97909.77
2019-02-19T20:27:25.754Z,97903.41
2019-02-19T20:29:52.420Z,97907.05
2019-02-19T20:32:19.334Z,97908.77
2019-02-19T20:34:46.260Z,97904.84
2019-02-19T20:37:12.928Z,97914.58
2019-02-19T20:39:39.776Z,97911.72
2019-02-19T20:42:06.577Z,97916.30
2019-02-19T20:44:33.442Z,97916.42
2019-02-19T20:47:00.423Z,97927.31
2019-02-19T20:49:28.375Z,97924.83
2019-02-19T20:51:55.245Z,97925.23
2019-02-19T20:54:22.210Z,97925.70
2019-02-19T20:56:49.024Z,97922.36
2019-02-19T20:59:17.037Z,97930.31
2019-02-19T21:01:44.869Z,97936.69
2019-02-19T21:04:11.921Z,97938.77
2019-02-19T21:06:38.871Z,97941.63
2019-02-19T21:09:06.827Z,97949.70
2019-02-19T21:11:34.238Z,97944.77
2019-02-19T21:14:01.282Z,97950.91
2019-02-19T21:16:28.075Z,97957.58
2019-02-19T21:18:55.019Z,97960.66
2019-02-19T21:21:21.971Z,97957.52
2019-02-19T21:23:49.706Z,97955.22
2019-02-19T21:26:16.527Z,97961.97
2019-02-19T21:28:43.602Z,97961.66
2019-02-19T21:31:10.477Z,97957.42
2019-02-19T21:33:37.402Z,97961.32
2019-02-19T21:36:04.333Z,97965.73
2019-02-19T21:38:31.168Z,97968.54
2019-02-19T21:40:57.871Z,97975.05
2019-02-19T21:43:24.723Z,97971.31
2019-02-19T21:45:51.515Z,97977.37
2019-02-19T21:48:18.211Z,97975.31
2019-02-19T21:50:45.142Z,97987.25
2019-02-19T21:53:11.842Z,97978.45
2019-02-19T21:55:44.495Z,97981.50
2019-02-19T21:58:11.252Z,97978.40
2019-02-19T22:00:38.004Z,97982.57
2019-02-19T22:03:04.868Z,97976.07
2019-02-19T22:05:31.586Z,97978.25
2019-02-19T22:07:58.495Z,97974.97
2019-02-19T22:10:25.468Z,97976.16
2019-02-19T22:12:52.264Z,97976.81
2019-02-19T22:15:19.104Z,97974.27
2019-02-19T22:17:45.956Z,97971.20
2019-02-19T22:20:33.582Z,97974.64
2019-02-19T22:23:00.519Z,97977.38
2019-02-19T22:25:27.420Z,97975.48
2019-02-19T22:27:54.311Z,97978.00
2019-02-19T22:30:21.159Z,97973.84
2019-02-19T22:32:48.032Z,97977.30
2019-02-19T22:35:14.925Z,97981.46
2019-02-19T22:37:41.779Z,97980.38
2019-02-19T22:40:14.610Z,97988.37
2019-02-19T22:42:41.356Z,97983.14
2019-02-19T22:45:08.788Z,97981.63
2019-02-19T22:47:35.546Z,97984.43
2019-02-19T22:50:02.606Z,97989.91
2019-02-19T22:52:29.699Z,97984.77
2019-02-19T22:55:22.226Z,97990.56
2019-02-19T22:57:48.986Z,97989.44
2019-02-19T23:00:44.173Z,97993.70
2019-02-19T23:03:10.869Z,97992.79
2019-02-19T23:05:37.643Z,97994.16
2019-02-19T23:08:04.497Z,97991.91
2019-02-19T23:10:31.192Z,97997.48
2019-02-19T23:12:58.177Z,97993.06
2019-02-19T23:15:25.039Z,97992.67
2019-02-19T23:17:51.844Z,97996.30
2019-02-19T23:20:18.483Z,97997.05
2019-02-19T23:22:45.331Z,97996.27
2019-02-19T23:25:12.127Z,97997.11
2019-02-19T23:27:38.736Z,98000.98
2019-02-19T23:30:05.843Z,98006.77
2019-02-19T23:32:32.545Z,98009.34
2019-02-19T23:35:30.886Z,98004.72
2019-02-19T23:37:57.677Z,98004.63
2019-02-19T23:40:24.491Z,98005.05
2019-02-19T23:42:51.186Z,98007.32
2019-02-19T23:45:18.070Z,98013.51
2019-02-19T23:47:44.866Z,98015.83
2019-02-19T23:50:11.679Z,98013.66
2019-02-19T23:52:38.531Z,98014.80
2019-02-19T23:55:05.263Z,98015.22
2019-02-19T23:57:31.986Z,98019.13
2019-02-19T23:59:58.762Z,98017.18
